Time,TemperatureF,DewpointF,PressureIn,WindDirection,WindDirectionDegrees,WindSpeedMPH,WindSpeedGustMPH,Humidity,HourlyPrecipIn,Conditions,Clouds,dailyrainin,SoftwareType,DateUTC
2013-05-12 00:12:00,52.5,36.8,29.23,NNW,340,0.0,12.8,55,0.04,,,0.04,VWS V13.01,2013-05-12 04:12:00,
2013-05-12 00:17:00,52.5,37.3,29.23,NNW,340,0.0,12.8,56,0.04,,,0.04,VWS V13.01,2013-05-12 04:17:00,
2013-05-12 00:22:00,52.7,37.5,29.23,SSE,154,0.0,12.8,56,0.04,,,0.04,VWS V13.01,2013-05-12 04:22:00,
2013-05-12 00:27:00,52.7,37.5,29.23,SSE,154,0.0,12.8,56,0.04,,,0.04,VWS V13.01,2013-05-12 04:27:00,
2013-05-12 00:32:00,52.7,37.9,29.23,SSE,154,0.0,12.8,57,0.04,,,0.04,VWS V13.01,2013-05-12 04:32:00,
2013-05-12 00:37:00,52.7,37.9,29.23,SSE,154,0.0,12.8,57,0.04,,,0.04,VWS V13.01,2013-05-12 04:37:00,
2013-05-12 00:42:00,52.7,38.3,29.23,SSE,154,0.0,12.8,58,0.04,,,0.04,VWS V13.01,2013-05-12 04:42:00,
2013-05-12 00:47:00,52.9,38.5,29.23,SSE,151,2.7,12.8,58,0.04,,,0.04,VWS V13.01,2013-05-12 04:47:00,
2013-05-12 00:52:00,52.9,39.0,29.23,WNW,303,2.7,12.8,59,0.04,,,0.04,VWS V13.01,2013-05-12 04:52:00,
2013-05-12 00:57:00,52.9,39.0,29.26,NNW,342,4.0,12.8,59,0.04,,,0.04,VWS V13.01,2013-05-12 04:57:00,
2013-05-12 01:02:00,53.1,39.6,29.26,NW,308,3.6,12.8,60,0.04,,,0.04,VWS V13.01,2013-05-12 05:02:00,
2013-05-12 01:07:00,53.1,40.0,29.26,NNW,333,3.1,12.8,61,0.04,,,0.04,VWS V13.01,2013-05-12 05:07:00,
2013-05-12 01:12:00,53.2,40.6,29.26,NW,317,2.2,12.8,62,0.04,,,0.04,VWS V13.01,2013-05-12 05:12:00,
2013-05-12 01:17:00,53.2,40.6,29.26,NW,309,0.0,12.8,62,0.04,,,0.04,VWS V13.01,2013-05-12 05:17:00,
2013-05-12 01:22:00,53.2,40.6,29.26,NW,308,0.0,12.8,62,0.04,,,0.04,VWS V13.01,2013-05-12 05:22:00,
2013-05-12 01:27:00,53.2,40.6,29.26,NW,316,2.7,12.8,62,0.04,,,0.04,VWS V13.01,2013-05-12 05:27:00,
2013-05-12 01:32:00,53.2,41.0,29.26,NW,316,3.1,12.8,63,0.04,,,0.04,VWS V13.01,2013-05-12 05:32:00,
2013-05-12 01:37:00,53.2,41.0,29.26,WNW,295,2.7,12.8,63,0.04,,,0.04,VWS V13.01,2013-05-12 05:37:00,
2013-05-12 01:42:00,53.4,41.2,29.26,WNW,297,3.6,12.8,63,0.04,,,0.04,VWS V13.01,2013-05-12 05:42:00,
2013-05-12 01:47:00,53.2,41.4,29.26,NW,319,2.2,12.8,64,0.04,,,0.04,VWS V13.01,2013-05-12 05:47:00,
2013-05-12 01:52:00,53.4,41.6,29.26,WNW,299,2.2,12.8,64,0.04,,,0.04,VWS V13.01,2013-05-12 05:52:00,
2013-05-12 01:57:00,53.4,41.6,29.26,NW,315,2.7,12.8,64,0.04,,,0.04,VWS V13.01,2013-05-12 05:57:00,
2013-05-12 02:02:00,53.4,41.6,29.26,NW,313,2.2,12.8,64,0.04,,,0.04,VWS V13.01,2013-05-12 06:02:00,
2013-05-12 02:07:00,53.4,41.6,29.26,NW,304,2.7,12.8,64,0.04,,,0.04,VWS V13.01,2013-05-12 06:07:00,
2013-05-12 02:12:00,53.2,41.4,29.26,NW,326,3.1,12.8,64,0.04,,,0.04,VWS V13.01,2013-05-12 06:12:00,
2013-05-12 02:17:00,53.2,41.4,29.26,NW,309,2.7,12.8,64,0.04,,,0.04,VWS V13.01,2013-05-12 06:17:00,
2013-05-12 02:22:00,53.1,41.2,29.26,NW,306,2.7,12.8,64,0.04,,,0.04,VWS V13.01,2013-05-12 06:22:00,
2013-05-12 02:27:00,53.1,41.2,29.26,North,11,2.2,12.8,64,0.04,,,0.04,VWS V13.01,2013-05-12 06:27:00,
2013-05-12 02:32:00,52.9,41.0,29.26,WSW,252,3.6,12.8,64,0.04,,,0.04,VWS V13.01,2013-05-12 06:32:00,
2013-05-12 02:37:00,52.7,40.1,29.26,NE,36,3.1,12.8,62,0.04,,,0.04,VWS V13.01,2013-05-12 06:37:00,
2013-05-12 02:42:00,52.3,36.7,29.29,North,0,2.7,12.8,55,0.04,,,0.04,VWS V13.01,2013-05-12 06:42:00,
2013-05-12 02:47:00,52.0,32.9,29.29,NW,308,0.0,12.8,48,0.04,,,0.04,VWS V13.01,2013-05-12 06:47:00,
2013-05-12 02:52:00,51.8,31.7,29.29,NW,312,0.0,12.8,46,0.04,,,0.04,VWS V13.01,2013-05-12 06:52:00,
2013-05-12 02:57:00,51.3,30.1,29.29,NNW,335,2.2,12.8,44,0.04,,,0.04,VWS V13.01,2013-05-12 06:57:00,
2013-05-12 03:02:00,51.1,30.0,29.29,WNW,291,0.0,12.8,44,0.04,,,0.04,VWS V13.01,2013-05-12 07:02:00,
2013-05-12 03:07:00,50.5,27.7,29.29,NW,324,0.0,12.8,41,0.04,,,0.04,VWS V13.01,2013-05-12 07:07:00,
2013-05-12 03:12:00,50.2,26.8,29.29,NW,324,0.0,12.8,40,0.04,,,0.04,VWS V13.01,2013-05-12 07:12:00,
2013-05-12 03:17:00,49.6,26.3,29.29,NNW,327,0.0,12.8,40,0.04,,,0.04,VWS V13.01,2013-05-12 07:17:00,
2013-05-12 03:22:00,49.3,26.0,29.29,NNW,327,0.0,12.8,40,0.04,,,0.04,VWS V13.01,2013-05-12 07:22:00,
2013-05-12 03:27:00,48.9,25.7,29.29,NW,310,0.0,12.8,40,0.04,,,0.04,VWS V13.01,2013-05-12 07:27:00,
2013-05-12 03:32:00,48.9,25.7,29.29,NW,310,0.0,12.8,40,0.04,,,0.04,VWS V13.01,2013-05-12 07:32:00,
2013-05-12 03:37:00,48.7,26.1,29.29,NW,310,0.0,12.8,41,0.04,,,0.04,VWS V13.01,2013-05-12 07:37:00,
2013-05-12 03:42:00,48.4,25.8,29.29,NW,310,0.0,12.8,41,0.04,,,0.04,VWS V13.01,2013-05-12 07:42:00,
2013-05-12 03:47:00,48.0,25.5,29.29,NW,310,0.0,12.8,41,0.04,,,0.04,VWS V13.01,2013-05-12 07:47:00,
2013-05-12 03:52:00,47.7,25.7,29.29,NW,310,0.0,12.8,42,0.04,,,0.04,VWS V13.01,2013-05-12 07:52:00,
2013-05-12 03:57:00,47.3,25.4,29.29,NW,310,0.0,12.8,42,0.04,,,0.04,VWS V13.01,2013-05-12 07:57:00,
2013-05-12 04:02:00,47.1,25.2,29.29,NW,310,0.0,12.8,42,0.04,,,0.04,VWS V13.01,2013-05-12 08:02:00,
2013-05-12 04:07:00,46.8,25.5,29.29,NW,310,0.0,12.8,43,0.04,,,0.04,VWS V13.01,2013-05-12 08:07:00,
2013-05-12 04:12:00,46.4,25.7,29.29,North,353,2.7,12.8,44,0.04,,,0.04,VWS V13.01,2013-05-12 08:12:00,
2013-05-12 04:17:00,46.6,27.5,29.29,North,350,0.0,12.8,47,0.04,,,0.04,VWS V13.01,2013-05-12 08:17:00,
2013-05-12 04:22:00,46.4,27.3,29.29,North,350,0.0,12.8,47,0.04,,,0.04,VWS V13.01,2013-05-12 08:22:00,
2013-05-12 04:27:00,46.2,27.1,29.29,North,350,0.0,12.8,47,0.04,,,0.04,VWS V13.01,2013-05-12 08:27:00,
2013-05-12 04:32:00,46.0,27.5,29.29,North,350,0.0,12.8,48,0.04,,,0.04,VWS V13.01,2013-05-12 08:32:00,
2013-05-12 04:37:00,45.9,27.3,29.29,North,350,0.0,12.8,48,0.04,,,0.04,VWS V13.01,2013-05-12 08:37:00,
2013-05-12 04:42:00,45.7,27.1,29.29,North,350,0.0,12.8,48,0.04,,,0.04,VWS V13.01,2013-05-12 08:42:00,
2013-05-12 04:47:00,45.3,26.8,29.29,North,350,0.0,12.8,48,0.04,,,0.04,VWS V13.01,2013-05-12 08:47:00,
2013-05-12 04:52:00,45.3,26.8,29.29,North,350,0.0,12.8,48,0.04,,,0.04,VWS V13.01,2013-05-12 08:52:00,
2013-05-12 04:57:00,45.1,27.1,29.32,North,350,0.0,12.8,49,0.04,,,0.04,VWS V13.01,2013-05-12 08:57:00,
2013-05-12 05:02:00,45.1,27.1,29.32,North,350,0.0,12.8,49,0.04,,,0.04,VWS V13.01,2013-05-12 09:02:00,
2013-05-12 05:07:00,44.8,26.8,29.32,North,350,0.0,12.8,49,0.04,,,0.04,VWS V13.01,2013-05-12 09:07:00,
2013-05-12 05:12:00,44.8,26.8,29.32,North,350,0.0,12.8,49,0.04,,,0.04,VWS V13.01,2013-05-12 09:12:00,
2013-05-12 05:17:00,44.8,27.3,29.32,North,350,0.0,12.8,50,0.04,,,0.04,VWS V13.01,2013-05-12 09:17:00,
2013-05-12 05:22:00,44.8,27.3,29.32,North,350,0.0,12.8,50,0.04,,,0.04,VWS V13.01,2013-05-12 09:22:00,
2013-05-12 05:27:00,44.8,27.3,29.32,North,350,0.0,12.8,50,0.04,,,0.04,VWS V13.01,2013-05-12 09:27:00,
2013-05-12 05:33:00,44.6,27.1,29.32,North,350,0.0,12.8,50,0.04,,,0.04,VWS V13.01,2013-05-12 09:33:00,
2013-05-12 05:38:00,44.4,27.0,29.32,North,350,0.0,12.8,50,0.04,,,0.04,VWS V13.01,2013-05-12 09:38:00,
2013-05-12 05:43:00,44.2,26.8,29.32,North,350,0.0,12.8,50,0.04,,,0.04,VWS V13.01,2013-05-12 09:43:00,
2013-05-12 05:48:00,44.1,26.6,29.32,North,350,0.0,12.8,50,0.04,,,0.04,VWS V13.01,2013-05-12 09:48:00,
2013-05-12 05:53:00,44.1,26.6,29.32,North,350,0.0,12.8,50,0.04,,,0.04,VWS V13.01,2013-05-12 09:53:00,
2013-05-12 05:58:00,44.1,27.1,29.32,North,350,0.0,12.8,51,0.04,,,0.04,VWS V13.01,2013-05-12 09:58:00,
2013-05-12 06:03:00,43.9,26.9,29.32,North,350,0.0,12.8,51,0.04,,,0.04,VWS V13.01,2013-05-12 10:03:00,
2013-05-12 06:08:00,43.9,26.9,29.32,North,350,0.0,12.8,51,0.04,,,0.04,VWS V13.01,2013-05-12 10:08:00,
2013-05-12 06:13:00,43.5,26.6,29.32,North,350,0.0,12.8,51,0.04,,,0.04,VWS V13.01,2013-05-12 10:13:00,
2013-05-12 06:18:00,43.3,26.4,29.32,North,350,0.0,12.8,51,0.04,,,0.04,VWS V13.01,2013-05-12 10:18:00,
2013-05-12 06:23:00,43.3,26.4,29.32,North,350,0.0,12.8,51,0.04,,,0.04,VWS V13.01,2013-05-12 10:23:00,
2013-05-12 06:28:00,43.2,26.3,29.32,North,350,0.0,12.8,51,0.04,,,0.04,VWS V13.01,2013-05-12 10:28:00,
2013-05-12 06:33:00,43.3,26.9,29.32,NNW,333,0.0,12.8,52,0.04,,,0.04,VWS V13.01,2013-05-12 10:33:00,
2013-05-12 06:38:00,43.3,26.9,29.32,NNW,333,0.0,12.8,52,0.04,,,0.04,VWS V13.01,2013-05-12 10:38:00,
2013-05-12 06:43:00,43.3,26.9,29.32,NNW,337,0.0,12.8,52,0.04,,,0.04,VWS V13.01,2013-05-12 10:43:00,
2013-05-12 06:48:00,43.2,26.7,29.32,NNW,338,0.0,12.8,52,0.04,,,0.04,VWS V13.01,2013-05-12 10:48:00,
2013-05-12 06:53:00,43.0,26.6,29.32,NNW,338,0.0,12.8,52,0.04,,,0.04,VWS V13.01,2013-05-12 10:53:00,
2013-05-12 06:58:00,43.0,26.6,29.32,NNW,331,0.0,12.8,52,0.04,,,0.04,VWS V13.01,2013-05-12 10:58:00,
2013-05-12 07:03:00,43.0,27.0,29.32,NNW,331,0.0,12.8,53,0.04,,,0.04,VWS V13.01,2013-05-12 11:03:00,
2013-05-12 07:08:00,43.2,27.2,29.32,NNW,331,0.0,12.8,53,0.04,,,0.04,VWS V13.01,2013-05-12 11:08:00,
2013-05-12 07:13:00,43.3,27.8,29.32,NNW,331,0.0,12.8,54,0.04,,,0.04,VWS V13.01,2013-05-12 11:13:00,
2013-05-12 07:18:00,43.5,28.0,29.32,NNW,331,0.0,12.8,54,0.04,,,0.04,VWS V13.01,2013-05-12 11:18:00,
2013-05-12 07:23:00,43.7,28.2,29.32,NNW,331,0.0,12.8,54,0.04,,,0.04,VWS V13.01,2013-05-12 11:23:00,
2013-05-12 07:28:00,43.9,28.3,29.35,NNW,331,0.0,12.8,54,0.04,,,0.04,VWS V13.01,2013-05-12 11:28:00,
2013-05-12 07:33:00,44.1,28.5,29.35,NNW,331,0.0,12.8,54,0.04,,,0.04,VWS V13.01,2013-05-12 11:33:00,
2013-05-12 07:38:00,44.4,28.8,29.35,NNW,331,0.0,12.8,54,0.04,,,0.04,VWS V13.01,2013-05-12 11:38:00,
2013-05-12 07:43:00,45.0,29.8,29.35,NNW,331,0.0,12.8,55,0.04,,,0.04,VWS V13.01,2013-05-12 11:43:00,
2013-05-12 07:48:00,45.9,30.6,29.35,NNW,331,0.0,12.8,55,0.04,,,0.04,VWS V13.01,2013-05-12 11:48:00,
2013-05-12 07:53:00,46.2,31.0,29.35,NNW,331,0.0,12.8,55,0.04,,,0.04,VWS V13.01,2013-05-12 11:53:00,
2013-05-12 07:58:00,46.6,31.3,29.35,NNW,331,0.0,12.8,55,0.04,,,0.04,VWS V13.01,2013-05-12 11:58:00,
2013-05-12 08:03:00,46.6,31.3,29.35,NNW,331,0.0,12.8,55,0.04,,,0.04,VWS V13.01,2013-05-12 12:03:00,
2013-05-12 08:57:00,49.1,24.0,29.35,NW,322,2.7,2.7,37,0.00,,,0.04,VWS V13.01,2013-05-12 12:57:00,
2013-05-12 09:02:00,49.6,24.5,29.35,NW,304,0.0,3.6,37,0.04,,,0.04,VWS V13.01,2013-05-12 13:02:00,
2013-05-12 09:07:00,50.2,24.3,29.35,SW,232,4.0,4.0,36,0.04,,,0.04,VWS V13.01,2013-05-12 13:07:00,
2013-05-12 09:12:00,50.5,21.8,29.35,West,281,0.0,4.0,32,0.04,,,0.04,VWS V13.01,2013-05-12 13:12:00,
2013-05-12 09:17:00,50.7,18.0,29.35,SW,228,7.6,7.6,27,0.04,,,0.04,VWS V13.01,2013-05-12 13:17:00,
2013-05-12 09:22:00,50.2,17.5,29.35,SW,232,3.1,8.1,27,0.04,,,0.04,VWS V13.01,2013-05-12 13:22:00,
2013-05-12 09:27:00,50.4,17.7,29.35,West,261,0.0,8.1,27,0.04,,,0.04,VWS V13.01,2013-05-12 13:27:00,
2013-05-12 09:32:00,50.5,17.0,29.35,WSW,245,2.7,8.1,26,0.04,,,0.04,VWS V13.01,2013-05-12 13:32:00,
2013-05-12 09:37:00,50.7,17.1,29.35,SE,146,0.0,8.1,26,0.04,,,0.04,VWS V13.01,2013-05-12 13:37:00,
2013-05-12 09:42:00,51.1,18.3,29.35,SSW,202,5.4,8.1,27,0.04,,,0.04,VWS V13.01,2013-05-12 13:42:00,
2013-05-12 09:47:00,51.3,17.6,29.35,West,260,4.0,8.1,26,0.04,,,0.04,VWS V13.01,2013-05-12 13:47:00,
2013-05-12 09:52:00,51.4,17.7,29.35,West,261,2.2,8.1,26,0.04,,,0.04,VWS V13.01,2013-05-12 13:52:00,
2013-05-12 09:57:00,52.2,15.5,29.35,SSW,210,2.7,8.1,23,0.04,,,0.04,VWS V13.01,2013-05-12 13:57:00,
2013-05-12 10:02:00,52.3,10.1,29.35,NNW,345,3.1,8.1,18,0.04,,,0.04,VWS V13.01,2013-05-12 14:02:00,
2013-05-12 10:07:00,52.3,10.1,29.35,West,281,3.6,8.1,18,0.04,,,0.04,VWS V13.01,2013-05-12 14:07:00,
2013-05-12 10:12:00,52.9,10.6,29.35,SE,131,2.2,8.1,18,0.04,,,0.04,VWS V13.01,2013-05-12 14:12:00,
2013-05-12 10:17:00,53.4,8.4,29.35,NNW,340,4.0,8.1,16,0.04,,,0.04,VWS V13.01,2013-05-12 14:17:00,
2013-05-12 10:22:00,53.4,8.4,29.35,WSW,247,2.7,8.1,16,0.04,,,0.04,VWS V13.01,2013-05-12 14:22:00,
2013-05-12 10:27:00,53.2,8.2,29.35,NW,306,3.1,8.1,16,0.04,,,0.04,VWS V13.01,2013-05-12 14:27:00,
2013-05-12 10:32:00,53.4,8.4,29.35,WSW,244,3.6,8.1,16,0.04,,,0.04,VWS V13.01,2013-05-12 14:32:00,
2013-05-12 10:37:00,53.8,7.2,29.35,NW,317,5.4,8.1,15,0.04,,,0.04,VWS V13.01,2013-05-12 14:37:00,
2013-05-12 10:42:00,53.6,7.1,29.35,West,269,3.6,8.1,15,0.04,,,0.04,VWS V13.01,2013-05-12 14:42:00,
2013-05-12 10:47:00,53.4,8.4,29.35,SSW,194,3.1,10.1,16,0.04,,,0.04,VWS V13.01,2013-05-12 14:47:00,
2013-05-12 10:52:00,53.6,7.1,29.35,West,275,8.7,10.1,15,0.04,,,0.04,VWS V13.01,2013-05-12 14:52:00,
2013-05-12 10:57:00,53.4,8.4,29.35,WSW,251,6.3,10.1,16,0.04,,,0.04,VWS V13.01,2013-05-12 14:57:00,
2013-05-12 11:02:00,54.1,7.5,29.35,NNW,329,4.5,10.1,15,0.04,,,0.04,VWS V13.01,2013-05-12 15:02:00,
2013-05-12 11:07:00,54.5,7.8,29.35,WNW,293,0.0,10.1,15,0.04,,,0.04,VWS V13.01,2013-05-12 15:07:00,
2013-05-12 11:12:00,54.3,7.7,29.35,North,357,2.7,10.1,15,0.04,,,0.04,VWS V13.01,2013-05-12 15:12:00,
2013-05-12 11:17:00,54.7,8.0,29.35,NNW,330,5.4,10.1,15,0.04,,,0.04,VWS V13.01,2013-05-12 15:17:00,
2013-05-12 11:22:00,55.0,8.2,29.35,WNW,286,3.6,10.1,15,0.04,,,0.04,VWS V13.01,2013-05-12 15:22:00,
2013-05-12 11:27:00,55.0,8.2,29.35,SW,222,10.5,10.5,15,0.04,,,0.04,VWS V13.01,2013-05-12 15:27:00,
2013-05-12 11:32:00,55.0,8.2,29.35,West,266,6.3,10.5,15,0.04,,,0.04,VWS V13.01,2013-05-12 15:32:00,
2013-05-12 11:37:00,55.0,8.2,29.35,NW,305,3.6,10.5,15,0.04,,,0.04,VWS V13.01,2013-05-12 15:37:00,
2013-05-12 11:42:00,55.4,8.5,29.35,NW,304,4.9,10.5,15,0.04,,,0.04,VWS V13.01,2013-05-12 15:42:00,
2013-05-12 11:47:00,55.0,8.2,29.35,NNW,336,7.6,10.5,15,0.04,,,0.04,VWS V13.01,2013-05-12 15:47:00,
2013-05-12 11:52:00,55.4,8.5,29.35,West,276,4.0,10.5,15,0.04,,,0.04,VWS V13.01,2013-05-12 15:52:00,
2013-05-12 11:57:00,55.0,8.2,29.35,WNW,298,8.7,10.5,15,0.04,,,0.04,VWS V13.01,2013-05-12 15:57:00,
2013-05-12 12:02:00,55.4,8.5,29.35,NW,318,4.0,10.5,15,0.04,,,0.04,VWS V13.01,2013-05-12 16:02:00,
2013-05-12 12:07:00,55.9,9.0,29.35,WSW,249,4.0,10.5,15,0.04,,,0.04,VWS V13.01,2013-05-12 16:07:00,
2013-05-12 12:12:00,56.3,9.3,29.38,NW,311,5.8,10.5,15,0.04,,,0.04,VWS V13.01,2013-05-12 16:12:00,
2013-05-12 12:17:00,56.3,9.3,29.38,South,172,6.3,10.5,15,0.04,,,0.04,VWS V13.01,2013-05-12 16:17:00,
2013-05-12 12:22:00,55.9,9.0,29.38,WSW,254,3.1,10.5,15,0.04,,,0.04,VWS V13.01,2013-05-12 16:22:00,
2013-05-12 12:27:00,56.3,9.3,29.35,SSW,209,3.6,10.5,15,0.04,,,0.04,VWS V13.01,2013-05-12 16:27:00,
2013-05-12 12:32:00,56.7,9.6,29.35,WSW,237,5.4,17.0,15,0.04,,,0.04,VWS V13.01,2013-05-12 16:32:00,
2013-05-12 12:37:00,57.0,9.8,29.35,WNW,288,8.1,17.0,15,0.04,,,0.04,VWS V13.01,2013-05-12 16:37:00,
2013-05-12 12:42:00,57.2,8.4,29.35,West,279,2.7,17.0,14,0.04,,,0.04,VWS V13.01,2013-05-12 16:42:00,
2013-05-12 12:47:00,56.8,9.7,29.35,NNW,330,7.6,17.0,15,0.04,,,0.04,VWS V13.01,2013-05-12 16:47:00,
2013-05-12 12:52:00,57.0,9.8,29.35,West,270,6.3,17.0,15,0.04,,,0.04,VWS V13.01,2013-05-12 16:52:00,
2013-05-12 12:57:00,57.2,5.1,29.35,WSW,242,4.0,17.0,12,0.04,,,0.04,VWS V13.01,2013-05-12 16:57:00,
2013-05-12 13:02:00,57.2,8.4,29.35,WNW,289,8.1,17.0,14,0.04,,,0.04,VWS V13.01,2013-05-12 17:02:00,
2013-05-12 13:08:00,57.2,5.1,29.35,North,353,10.1,17.0,12,0.04,,,0.04,VWS V13.01,2013-05-12 17:08:00,
2013-05-12 13:14:00,57.9,9.0,29.35,NNE,17,8.7,17.0,14,0.04,,,0.04,VWS V13.01,2013-05-12 17:14:00,
2013-05-12 13:28:00,57.9,9.0,29.38,NNW,336,11.4,17.0,14,0.04,,,0.04,VWS V13.01,2013-05-12 17:28:00,
2013-05-12 13:33:00,57.9,9.0,29.38,West,264,5.8,17.0,14,0.04,,,0.04,VWS V13.01,2013-05-12 17:33:00,
2013-05-12 13:38:00,58.1,9.2,29.38,WSW,258,11.4,17.0,14,0.04,,,0.04,VWS V13.01,2013-05-12 17:38:00,
2013-05-12 13:43:00,57.6,5.3,29.35,NNW,332,8.3,17.0,12,0.04,,,0.04,VWS V13.01,2013-05-12 17:43:00,
2013-05-12 13:48:00,57.6,5.3,29.35,NW,306,8.3,17.0,12,0.04,,,0.04,VWS V13.01,2013-05-12 17:48:00,
2013-05-12 13:53:00,57.6,5.3,29.35,SW,231,6.3,17.0,12,0.04,,,0.04,VWS V13.01,2013-05-12 17:53:00,
2013-05-12 13:58:00,57.9,9.0,29.35,WNW,289,5.4,17.0,14,0.04,,,0.04,VWS V13.01,2013-05-12 17:58:00,
2013-05-12 14:03:00,58.3,9.3,29.35,NW,311,5.8,17.0,14,0.04,,,0.04,VWS V13.01,2013-05-12 18:03:00,
2013-05-12 14:08:00,58.5,9.5,29.35,WNW,284,3.1,17.0,14,0.04,,,0.04,VWS V13.01,2013-05-12 18:08:00,
2013-05-12 14:13:00,58.6,9.6,29.38,WNW,288,4.9,17.0,14,0.04,,,0.04,VWS V13.01,2013-05-12 18:13:00,
2013-05-12 14:18:00,58.6,9.6,29.38,WNW,295,6.3,17.0,14,0.04,,,0.04,VWS V13.01,2013-05-12 18:18:00,
2013-05-12 14:23:00,58.5,9.5,29.38,WSW,239,8.1,17.0,14,0.04,,,0.04,VWS V13.01,2013-05-12 18:23:00,
2013-05-12 14:28:00,57.7,5.5,29.38,NW,309,7.6,17.0,12,0.04,,,0.04,VWS V13.01,2013-05-12 18:28:00,
2013-05-12 14:33:00,58.1,9.2,29.38,WSW,239,6.3,17.0,14,0.04,,,0.04,VWS V13.01,2013-05-12 18:33:00,
2013-05-12 14:38:00,58.8,9.8,29.38,SW,225,5.8,17.0,14,0.04,,,0.04,VWS V13.01,2013-05-12 18:38:00,
2013-05-12 14:43:00,58.8,9.8,29.35,WNW,299,6.3,17.0,14,0.04,,,0.04,VWS V13.01,2013-05-12 18:43:00,
2013-05-12 14:48:00,59.2,10.0,29.35,WNW,285,6.3,17.0,14,0.04,,,0.04,VWS V13.01,2013-05-12 18:48:00,
2013-05-12 14:53:00,59.4,10.2,29.35,NNW,338,10.1,17.0,14,0.04,,,0.04,VWS V13.01,2013-05-12 18:53:00,
2013-05-12 14:58:00,59.7,10.5,29.35,WNW,290,8.3,17.0,14,0.04,,,0.04,VWS V13.01,2013-05-12 18:58:00,
2013-05-12 15:03:00,59.5,10.3,29.35,NW,315,3.1,17.0,14,0.04,,,0.04,VWS V13.01,2013-05-12 19:03:00,
2013-05-12 15:11:00,59.7,10.5,29.35,NNW,331,10.5,17.0,14,0.04,,,0.04,VWS V13.01,2013-05-12 19:11:00,
2013-05-12 15:16:00,59.7,10.5,29.35,NW,321,10.1,18.3,14,0.04,,,0.04,VWS V13.01,2013-05-12 19:16:00,
2013-05-12 15:21:00,59.7,10.5,29.35,North,353,5.8,18.3,14,0.04,,,0.04,VWS V13.01,2013-05-12 19:21:00,
2013-05-12 15:26:00,59.7,10.5,29.35,WNW,293,2.7,18.3,14,0.04,,,0.04,VWS V13.01,2013-05-12 19:26:00,
2013-05-12 15:31:00,60.1,10.8,29.35,WSW,251,8.3,18.3,14,0.04,,,0.04,VWS V13.01,2013-05-12 19:31:00,
2013-05-12 15:36:00,60.1,10.8,29.35,NW,306,11.4,18.3,14,0.04,,,0.04,VWS V13.01,2013-05-12 19:36:00,
2013-05-12 15:41:00,60.4,11.0,29.35,South,173,3.1,18.3,14,0.04,,,0.04,VWS V13.01,2013-05-12 19:41:00,
2013-05-12 15:46:00,60.8,11.3,29.35,West,279,3.1,18.3,14,0.04,,,0.04,VWS V13.01,2013-05-12 19:46:00,
2013-05-12 15:51:00,60.6,11.2,29.35,WNW,290,5.8,18.3,14,0.04,,,0.04,VWS V13.01,2013-05-12 19:51:00,
2013-05-12 15:56:00,60.4,11.0,29.35,West,271,4.0,18.3,14,0.04,,,0.04,VWS V13.01,2013-05-12 19:56:00,
2013-05-12 16:01:00,60.4,11.0,29.35,NW,307,8.7,18.3,14,0.04,,,0.04,VWS V13.01,2013-05-12 20:01:00,
2013-05-12 16:06:00,60.1,10.8,29.35,WSW,240,6.3,18.3,14,0.04,,,0.04,VWS V13.01,2013-05-12 20:06:00,
2013-05-12 16:11:00,60.3,10.9,29.35,WNW,298,7.6,18.3,14,0.04,,,0.04,VWS V13.01,2013-05-12 20:11:00,
2013-05-12 16:16:00,60.8,11.3,29.35,NNW,329,8.3,18.3,14,0.04,,,0.04,VWS V13.01,2013-05-12 20:16:00,
2013-05-12 16:21:00,60.8,11.3,29.35,West,271,10.5,18.3,14,0.04,,,0.04,VWS V13.01,2013-05-12 20:21:00,
2013-05-12 16:26:00,60.4,11.0,29.35,WSW,246,5.4,18.3,14,0.04,,,0.04,VWS V13.01,2013-05-12 20:26:00,
2013-05-12 16:31:00,60.6,11.2,29.35,WNW,299,3.1,18.3,14,0.04,,,0.04,VWS V13.01,2013-05-12 20:31:00,
2013-05-12 16:36:00,61.0,11.5,29.35,WNW,298,3.1,18.3,14,0.04,,,0.04,VWS V13.01,2013-05-12 20:36:00,
2013-05-12 16:41:00,61.0,11.5,29.35,NW,316,8.3,18.3,14,0.04,,,0.04,VWS V13.01,2013-05-12 20:41:00,
2013-05-12 16:46:00,60.4,11.0,29.35,West,277,10.5,18.3,14,0.04,,,0.04,VWS V13.01,2013-05-12 20:46:00,
2013-05-12 16:51:00,60.4,11.0,29.35,NW,310,2.2,18.3,14,0.04,,,0.04,VWS V13.01,2013-05-12 20:51:00,
2013-05-12 16:56:00,61.0,11.5,29.35,North,357,5.8,18.3,14,0.04,,,0.04,VWS V13.01,2013-05-12 20:56:00,
2013-05-12 17:01:00,61.0,11.5,29.35,NW,322,5.4,18.3,14,0.04,,,0.04,VWS V13.01,2013-05-12 21:01:00,
2013-05-12 17:06:00,61.2,11.6,29.35,WSW,239,3.1,18.3,14,0.04,,,0.04,VWS V13.01,2013-05-12 21:06:00,
2013-05-12 17:11:00,61.3,11.8,29.35,WNW,291,4.9,18.3,14,0.04,,,0.04,VWS V13.01,2013-05-12 21:11:00,
2013-05-12 17:16:00,61.0,11.5,29.35,WNW,287,6.3,18.3,14,0.04,,,0.04,VWS V13.01,2013-05-12 21:16:00,
2013-05-12 17:21:00,61.0,11.5,29.35,NW,315,5.8,18.3,14,0.04,,,0.04,VWS V13.01,2013-05-12 21:21:00,
2013-05-12 17:26:00,61.0,11.5,29.35,NW,320,3.6,18.3,14,0.04,,,0.04,VWS V13.01,2013-05-12 21:26:00,
2013-05-12 17:31:00,60.8,11.3,29.35,NW,316,7.6,18.3,14,0.04,,,0.04,VWS V13.01,2013-05-12 21:31:00,
2013-05-12 17:36:00,60.4,11.0,29.35,SW,214,3.6,18.3,14,0.04,,,0.04,VWS V13.01,2013-05-12 21:36:00,
2013-05-12 17:41:00,60.8,11.3,29.35,WSW,249,3.6,18.3,14,0.04,,,0.04,VWS V13.01,2013-05-12 21:41:00,
2013-05-12 17:46:00,60.4,11.0,29.35,NW,318,8.1,18.3,14,0.04,,,0.04,VWS V13.01,2013-05-12 21:46:00,
2013-05-12 17:51:00,60.8,11.3,29.35,North,0,8.7,18.3,14,0.04,,,0.04,VWS V13.01,2013-05-12 21:51:00,
2013-05-12 17:56:00,60.8,11.3,29.35,West,265,2.7,18.3,14,0.04,,,0.04,VWS V13.01,2013-05-12 21:56:00,
2013-05-12 18:01:00,61.3,11.8,29.35,WNW,284,8.1,18.3,14,0.04,,,0.04,VWS V13.01,2013-05-12 22:01:00,
2013-05-12 18:06:00,61.0,11.5,29.35,WNW,298,4.0,18.3,14,0.04,,,0.04,VWS V13.01,2013-05-12 22:06:00,
2013-05-12 18:11:00,60.1,10.8,29.35,WNW,299,6.3,18.3,14,0.04,,,0.04,VWS V13.01,2013-05-12 22:11:00,
2013-05-12 18:16:00,59.5,10.3,29.35,West,270,3.1,18.3,14,0.04,,,0.04,VWS V13.01,2013-05-12 22:16:00,
2013-05-12 18:21:00,59.9,10.6,29.35,WSW,257,6.3,18.3,14,0.04,,,0.04,VWS V13.01,2013-05-12 22:21:00,
2013-05-12 18:27:00,61.0,11.5,29.35,West,275,8.7,18.3,14,0.04,,,0.04,VWS V13.01,2013-05-12 22:27:00,
2013-05-12 18:32:00,61.3,11.8,29.35,WNW,301,5.4,18.3,14,0.04,,,0.04,VWS V13.01,2013-05-12 22:32:00,
2013-05-12 18:37:00,60.6,11.2,29.35,NW,304,5.8,18.3,14,0.04,,,0.04,VWS V13.01,2013-05-12 22:37:00,
2013-05-12 18:42:00,60.3,10.9,29.35,NW,319,3.6,18.3,14,0.04,,,0.04,VWS V13.01,2013-05-12 22:42:00,
2013-05-12 18:47:00,60.6,11.2,29.35,WSW,246,8.3,18.3,14,0.04,,,0.04,VWS V13.01,2013-05-12 22:47:00,
2013-05-12 18:52:00,60.6,11.2,29.35,NW,316,4.0,18.3,14,0.04,,,0.04,VWS V13.01,2013-05-12 22:52:00,
2013-05-12 18:57:00,60.3,10.9,29.35,WNW,302,6.3,18.3,14,0.04,,,0.04,VWS V13.01,2013-05-12 22:57:00,
2013-05-12 19:02:00,59.4,10.2,29.35,North,353,4.0,18.3,14,0.04,,,0.04,VWS V13.01,2013-05-12 23:02:00,
2013-05-12 19:07:00,59.5,10.3,29.35,WNW,299,5.4,18.3,14,0.04,,,0.04,VWS V13.01,2013-05-12 23:07:00,
2013-05-12 19:12:00,59.7,10.5,29.35,WNW,299,3.1,18.3,14,0.04,,,0.04,VWS V13.01,2013-05-12 23:12:00,
2013-05-12 19:17:00,59.9,10.6,29.35,WNW,287,3.1,18.3,14,0.04,,,0.04,VWS V13.01,2013-05-12 23:17:00,
2013-05-12 19:22:00,59.9,10.6,29.35,WNW,293,6.7,18.3,14,0.04,,,0.04,VWS V13.01,2013-05-12 23:22:00,
2013-05-12 19:27:00,59.7,10.5,29.35,NNW,327,8.1,18.3,14,0.04,,,0.04,VWS V13.01,2013-05-12 23:27:00,
2013-05-12 19:32:00,59.5,10.3,29.35,NW,316,7.6,18.3,14,0.04,,,0.04,VWS V13.01,2013-05-12 23:32:00,
2013-05-12 19:37:00,59.2,10.0,29.35,NW,316,5.8,18.3,14,0.04,,,0.04,VWS V13.01,2013-05-12 23:37:00,
2013-05-12 19:42:00,59.0,9.9,29.35,West,280,5.4,18.3,14,0.04,,,0.04,VWS V13.01,2013-05-12 23:42:00,
2013-05-12 19:47:00,58.8,9.8,29.35,WNW,285,5.4,18.3,14,0.04,,,0.04,VWS V13.01,2013-05-12 23:47:00,
2013-05-12 19:52:00,58.6,9.6,29.35,WNW,290,4.0,18.3,14,0.04,,,0.04,VWS V13.01,2013-05-12 23:52:00,
2013-05-12 19:57:00,58.5,9.5,29.35,NW,315,3.1,18.3,14,0.04,,,0.04,VWS V13.01,2013-05-12 23:57:00,
2013-05-12 20:02:00,58.1,5.8,29.35,NNW,327,6.3,18.3,12,0.04,,,0.04,VWS V13.01,2013-05-13 00:02:00,
2013-05-12 20:07:00,57.6,8.7,29.35,NW,313,4.0,18.3,14,0.04,,,0.04,VWS V13.01,2013-05-13 00:07:00,
2013-05-12 20:12:00,57.2,5.1,29.35,NW,311,4.0,18.3,12,0.04,,,0.04,VWS V13.01,2013-05-13 00:12:00,
2013-05-12 20:17:00,56.8,4.8,29.35,NW,314,3.1,18.3,12,0.04,,,0.04,VWS V13.01,2013-05-13 00:17:00,
2013-05-12 20:22:00,56.7,4.6,29.35,WNW,303,4.9,18.3,12,0.04,,,0.04,VWS V13.01,2013-05-13 00:22:00,
2013-05-12 20:27:00,56.3,4.4,29.35,NNW,344,3.6,18.3,12,0.04,,,0.04,VWS V13.01,2013-05-13 00:27:00,
2013-05-12 20:32:00,56.1,4.2,29.35,NNW,341,0.0,18.3,12,0.04,,,0.04,VWS V13.01,2013-05-13 00:32:00,
2013-05-12 20:37:00,55.8,3.9,29.35,NNW,329,2.7,18.3,12,0.04,,,0.04,VWS V13.01,2013-05-13 00:37:00,
2013-05-12 20:42:00,55.2,5.2,29.35,North,353,2.7,18.3,13,0.04,,,0.04,VWS V13.01,2013-05-13 00:42:00,
2013-05-12 20:47:00,54.9,5.0,29.35,NNW,343,0.0,18.3,13,0.04,,,0.04,VWS V13.01,2013-05-13 00:47:00,
2013-05-12 20:53:00,54.0,4.2,29.35,NNW,343,0.0,18.3,13,0.04,,,0.04,VWS V13.01,2013-05-13 00:53:00,
2013-05-12 20:58:00,53.2,3.7,29.35,NNW,343,0.0,18.3,13,0.04,,,0.04,VWS V13.01,2013-05-13 00:58:00,
2013-05-12 21:03:00,52.7,3.2,29.35,NNW,343,0.0,18.3,13,0.04,,,0.04,VWS V13.01,2013-05-13 01:03:00,
2013-05-12 21:08:00,52.2,2.8,29.35,NNW,343,0.0,18.3,13,0.04,,,0.04,VWS V13.01,2013-05-13 01:08:00,
2013-05-12 21:13:00,51.8,2.5,29.38,NNW,343,0.0,18.3,13,0.04,,,0.04,VWS V13.01,2013-05-13 01:13:00,
2013-05-12 21:18:00,51.6,4.0,29.38,NNW,343,0.0,18.3,14,0.04,,,0.04,VWS V13.01,2013-05-13 01:18:00,
2013-05-12 21:24:00,51.4,3.8,29.38,NNW,343,0.0,18.3,14,0.04,,,0.04,VWS V13.01,2013-05-13 01:24:00,
2013-05-12 21:29:00,51.3,3.7,29.38,North,0,0.0,18.3,14,0.04,,,0.04,VWS V13.01,2013-05-13 01:29:00,
2013-05-12 21:34:00,50.9,3.4,29.38,NNW,338,2.7,18.3,14,0.04,,,0.04,VWS V13.01,2013-05-13 01:34:00,
2013-05-12 21:39:00,50.7,3.3,29.38,North,353,2.2,18.3,14,0.04,,,0.04,VWS V13.01,2013-05-13 01:39:00,
2013-05-12 21:44:00,50.5,3.1,29.38,NNW,342,0.0,18.3,14,0.04,,,0.04,VWS V13.01,2013-05-13 01:44:00,
2013-05-12 21:49:00,50.2,2.8,29.38,NNW,342,0.0,18.3,14,0.04,,,0.04,VWS V13.01,2013-05-13 01:49:00,
2013-05-12 21:54:00,49.8,2.5,29.38,NNW,342,0.0,18.3,14,0.04,,,0.04,VWS V13.01,2013-05-13 01:54:00,
2013-05-12 21:59:00,49.5,2.3,29.38,NNW,342,0.0,18.3,14,0.04,,,0.04,VWS V13.01,2013-05-13 01:59:00,
2013-05-12 22:04:00,48.9,4.7,29.38,NNW,342,0.0,18.3,16,0.04,,,0.04,VWS V13.01,2013-05-13 02:04:00,
2013-05-12 22:09:00,48.4,4.3,29.38,NNW,342,0.0,18.3,16,0.04,,,0.04,VWS V13.01,2013-05-13 02:09:00,
2013-05-12 22:14:00,48.0,5.3,29.41,NNW,342,0.0,18.3,17,0.04,,,0.04,VWS V13.01,2013-05-13 02:14:00,
2013-05-12 22:19:00,47.5,4.8,29.41,NNW,342,0.0,18.3,17,0.04,,,0.04,VWS V13.01,2013-05-13 02:19:00,
2013-05-12 22:24:00,47.1,4.6,29.41,NNW,342,0.0,18.3,17,0.04,,,0.04,VWS V13.01,2013-05-13 02:24:00,
2013-05-12 22:29:00,46.8,4.3,29.41,NNW,342,0.0,18.3,17,0.04,,,0.04,VWS V13.01,2013-05-13 02:29:00,
2013-05-12 22:34:00,46.6,6.5,29.41,NNW,342,0.0,18.3,19,0.04,,,0.04,VWS V13.01,2013-05-13 02:34:00,
2013-05-12 22:39:00,46.2,7.4,29.41,NNW,342,0.0,18.3,20,0.04,,,0.04,VWS V13.01,2013-05-13 02:39:00,
2013-05-12 22:44:00,46.0,9.3,29.41,NNW,342,0.0,18.3,22,0.04,,,0.04,VWS V13.01,2013-05-13 02:44:00,
2013-05-12 22:49:00,45.7,9.0,29.41,NNW,342,0.0,18.3,22,0.04,,,0.04,VWS V13.01,2013-05-13 02:49:00,
2013-05-12 22:54:00,45.3,13.3,29.41,North,350,2.2,18.3,27,0.04,,,0.04,VWS V13.01,2013-05-13 02:54:00,
2013-05-12 22:59:00,45.3,14.1,29.41,North,2,0.0,18.3,28,0.04,,,0.04,VWS V13.01,2013-05-13 02:59:00,
2013-05-12 23:04:00,45.5,14.3,29.41,North,7,0.0,18.3,28,0.04,,,0.04,VWS V13.01,2013-05-13 03:04:00,
2013-05-12 23:09:00,45.5,14.3,29.41,North,7,0.0,18.3,28,0.04,,,0.04,VWS V13.01,2013-05-13 03:09:00,
2013-05-12 23:14:00,45.1,14.0,29.41,North,7,0.0,18.3,28,0.04,,,0.04,VWS V13.01,2013-05-13 03:14:00,
2013-05-12 23:19:00,45.0,13.8,29.41,North,7,0.0,18.3,28,0.04,,,0.04,VWS V13.01,2013-05-13 03:19:00,
2013-05-12 23:24:00,44.6,13.5,29.41,North,7,0.0,18.3,28,0.04,,,0.04,VWS V13.01,2013-05-13 03:24:00,
2013-05-12 23:29:00,44.4,14.2,29.41,North,7,0.0,18.3,29,0.04,,,0.04,VWS V13.01,2013-05-13 03:29:00,
2013-05-12 23:34:00,44.2,14.8,29.41,North,7,0.0,18.3,30,0.04,,,0.04,VWS V13.01,2013-05-13 03:34:00,
2013-05-12 23:39:00,44.1,15.4,29.41,NW,308,0.0,18.3,31,0.04,,,0.04,VWS V13.01,2013-05-13 03:39:00,
2013-05-12 23:44:00,43.9,15.2,29.41,NW,308,0.0,18.3,31,0.04,,,0.04,VWS V13.01,2013-05-13 03:44:00,
2013-05-12 23:49:00,43.5,15.6,29.41,NW,308,0.0,18.3,32,0.04,,,0.04,VWS V13.01,2013-05-13 03:49:00,
2013-05-12 23:54:00,43.2,16.0,29.41,NW,308,0.0,18.3,33,0.04,,,0.04,VWS V13.01,2013-05-13 03:54:00,
2013-05-12 23:59:00,43.0,16.5,29.41,NW,308,0.0,18.3,34,0.04,,,0.04,VWS V13.01,2013-05-13 03:59:00,